Time,TemperatureF,DewpointF,PressureIn,WindDirection,WindDirectionDegrees,WindSpeedMPH,WindSpeedGustMPH,Humidity,HourlyPrecipIn,Conditions,Clouds,dailyrainin,SoftwareType,DateUTC
2013-03-11 10:24:00,36.0,24.0,-100.00,North,-999,0.0,0.0,62,-99.99,,,-99.99,,2013-03-11 17:24:00,
2013-03-11 10:34:00,36.0,24.0,-100.00,North,-999,0.0,0.0,62,-99.99,,,-99.99,,2013-03-11 17:34:00,
2013-03-11 10:42:00,38.0,27.0,-100.00,North,-999,0.0,0.0,64,-99.99,,,-99.99,,2013-03-11 17:42:00,
2013-03-11 10:52:00,38.0,27.0,-100.00,WNW,299,0.0,3.0,64,-99.99,,,-99.99,,2013-03-11 17:52:00,
2013-03-11 11:02:00,39.0,27.0,-100.00,WSW,258,2.0,3.0,63,-99.99,,,-99.99,,2013-03-11 18:02:00,
2013-03-11 11:11:00,39.0,27.0,-100.00,WNW,299,1.0,2.0,62,-99.99,,,-99.99,,2013-03-11 18:11:00,
2013-03-11 11:22:00,39.0,27.0,-100.00,North,-999,0.0,0.0,63,-99.99,,,-99.99,,2013-03-11 18:22:00,
2013-03-11 11:32:00,39.0,27.0,-100.00,WNW,296,2.0,3.0,62,-99.99,,,-99.99,,2013-03-11 18:32:00,
2013-03-11 11:42:00,40.0,28.0,-100.00,NW,312,0.0,2.0,62,-99.99,,,-99.99,,2013-03-11 18:42:00,
2013-03-11 11:52:00,40.0,28.0,-100.00,WSW,258,2.0,3.0,62,-99.99,,,-99.99,,2013-03-11 18:52:00,
2013-03-11 12:02:00,40.0,28.0,-100.00,WNW,285,2.0,3.0,62,-99.99,,,-99.99,,2013-03-11 19:02:00,
2013-03-11 12:12:00,40.0,27.0,-100.00,WNW,294,3.0,4.0,59,-99.99,,,-99.99,,2013-03-11 19:12:00,
2013-03-11 12:22:00,40.0,27.0,-100.00,NW,312,1.0,3.0,60,-99.99,,,-99.99,,2013-03-11 19:22:00,
2013-03-11 12:32:00,41.0,27.0,-100.00,North,-999,0.0,0.0,57,-99.99,,,-99.99,,2013-03-11 19:32:00,
2013-03-11 12:42:00,41.0,21.0,-100.00,WNW,294,0.0,3.0,44,-99.99,,,-99.99,,2013-03-11 19:42:00,
2013-03-11 12:52:00,41.0,25.0,-100.00,North,-999,0.0,0.0,53,-99.99,,,-99.99,,2013-03-11 19:52:00,
2013-03-11 13:02:00,42.0,27.0,-100.00,North,-999,0.0,0.0,54,-99.99,,,-99.99,,2013-03-11 20:02:00,
2013-03-11 13:12:00,42.0,27.0,-100.00,WNW,295,2.0,4.0,54,-99.99,,,-99.99,,2013-03-11 20:12:00,
2013-03-11 13:22:00,43.0,28.0,-100.00,North,-999,0.0,0.0,55,-99.99,,,-99.99,,2013-03-11 20:22:00,
2013-03-11 13:32:00,43.0,28.0,-100.00,North,-999,0.0,0.0,55,-99.99,,,-99.99,,2013-03-11 20:32:00,
2013-03-11 13:52:00,44.0,27.0,-100.00,North,-999,0.0,0.0,50,-99.99,,,-99.99,,2013-03-11 20:52:00,
2013-03-11 14:02:00,44.0,28.0,-100.00,North,-999,0.0,0.0,52,-99.99,,,-99.99,,2013-03-11 21:02:00,
2013-03-11 14:12:00,44.0,28.0,-100.00,North,-999,0.0,0.0,54,-99.99,,,-99.99,,2013-03-11 21:12:00,
2013-03-11 14:22:00,44.0,27.0,-100.00,North,-999,0.0,0.0,50,-99.99,,,-99.99,,2013-03-11 21:22:00,
2013-03-11 14:32:00,44.0,26.0,-100.00,North,-999,0.0,0.0,48,-99.99,,,-99.99,,2013-03-11 21:32:00,
2013-03-11 14:43:00,46.0,25.0,-100.00,North,-999,0.0,0.0,44,-99.99,,,-99.99,,2013-03-11 21:43:00,
2013-03-11 14:52:00,47.0,19.0,-100.00,North,-999,0.0,0.0,33,-99.99,,,-99.99,,2013-03-11 21:52:00,
2013-03-11 15:02:00,47.0,20.0,-100.00,North,-999,0.0,0.0,34,-99.99,,,-99.99,,2013-03-11 22:02:00,
2013-03-11 15:12:00,47.0,17.0,-100.00,North,-999,0.0,0.0,30,-99.99,,,-99.99,,2013-03-11 22:12:00,
2013-03-11 15:22:00,45.0,31.0,-100.00,WSW,239,5.0,7.0,57,-99.99,,,-99.99,,2013-03-11 22:22:00,
2013-03-11 15:32:00,48.0,25.0,-100.00,West,271,0.0,0.0,40,-99.99,,,-99.99,,2013-03-11 22:32:00,
2013-03-11 15:43:00,45.0,31.0,-100.00,WSW,239,5.0,7.0,57,-99.99,,,-99.99,,2013-03-11 22:43:00,
2013-03-11 15:52:00,46.0,27.0,-100.00,WSW,241,3.0,6.0,48,-99.99,,,-99.99,,2013-03-11 22:52:00,
2013-03-11 16:02:00,48.0,9.0,-100.00,WSW,247,3.0,4.0,20,-99.99,,,-99.99,,2013-03-11 23:02:00,
2013-03-11 16:12:00,48.0,16.0,-100.00,WSW,248,3.0,6.0,27,-99.99,,,-99.99,,2013-03-11 23:12:00,
2013-03-11 16:22:00,48.0,33.0,-100.00,WSW,246,3.0,4.0,56,-99.99,,,-99.99,,2013-03-11 23:22:00,
2013-03-11 16:32:00,48.0,30.0,-100.00,WSW,244,3.0,5.0,50,-99.99,,,-99.99,,2013-03-11 23:32:00,
2013-03-11 16:42:00,48.0,12.0,-100.00,WSW,246,2.0,3.0,23,-99.99,,,-99.99,,2013-03-11 23:42:00,
2013-03-11 16:52:00,48.0,22.0,-100.00,North,-999,0.0,0.0,35,-99.99,,,-99.99,,2013-03-11 23:52:00,
2013-03-11 17:02:00,49.0,20.0,-100.00,North,-999,0.0,0.0,31,-99.99,,,-99.99,,2013-03-12 00:02:00,
2013-03-11 17:12:00,49.0,22.0,-100.00,NNW,329,1.0,3.0,34,-99.99,,,-99.99,,2013-03-12 00:12:00,
2013-03-11 17:22:00,48.0,28.0,-100.00,NW,320,1.0,2.0,46,-99.99,,,-99.99,,2013-03-12 00:22:00,
2013-03-11 17:32:00,48.0,28.0,-100.00,NW,320,1.0,2.0,46,-99.99,,,-99.99,,2013-03-12 00:32:00,
2013-03-11 17:42:00,52.0,14.0,-100.00,NW,308,0.0,0.0,22,-99.99,,,-99.99,,2013-03-12 00:42:00,
2013-03-11 17:53:00,52.0,16.0,-100.00,WNW,298,0.0,0.0,23,-99.99,,,-99.99,,2013-03-12 00:53:00,
2013-03-11 18:02:00,49.0,22.0,-100.00,North,-999,0.0,0.0,34,-99.99,,,-99.99,,2013-03-12 01:02:00,
2013-03-11 18:12:00,52.0,22.0,-100.00,North,-999,0.0,0.0,30,-99.99,,,-99.99,,2013-03-12 01:12:00,
2013-03-11 18:22:00,52.0,21.0,-100.00,North,-999,0.0,0.0,29,-99.99,,,-99.99,,2013-03-12 01:22:00,
2013-03-11 18:32:00,50.0,21.0,-100.00,North,-999,0.0,0.0,32,-99.99,,,-99.99,,2013-03-12 01:32:00,
2013-03-11 18:42:00,50.0,22.0,-100.00,North,-999,0.0,0.0,33,-99.99,,,-99.99,,2013-03-12 01:42:00,
2013-03-11 18:52:00,49.0,34.0,-100.00,North,-999,0.0,0.0,57,-99.99,,,-99.99,,2013-03-12 01:52:00,
2013-03-11 19:02:00,48.0,20.0,-100.00,North,-999,0.0,0.0,32,-99.99,,,-99.99,,2013-03-12 02:02:00,
2013-03-11 19:12:00,48.0,20.0,-100.00,North,-999,0.0,0.0,32,-99.99,,,-99.99,,2013-03-12 02:12:00,
2013-03-11 19:22:00,49.0,19.0,-100.00,North,-999,0.0,0.0,30,-99.99,,,-99.99,,2013-03-12 02:22:00,
2013-03-11 19:32:00,48.0,16.0,-100.00,North,-999,0.0,0.0,28,-99.99,,,-99.99,,2013-03-12 02:32:00,
2013-03-11 19:42:00,48.0,17.0,-100.00,North,-999,0.0,0.0,29,-99.99,,,-99.99,,2013-03-12 02:42:00,
2013-03-11 19:52:00,47.0,20.0,-100.00,North,-999,0.0,0.0,34,-99.99,,,-99.99,,2013-03-12 02:52:00,
2013-03-11 20:02:00,46.0,19.0,-100.00,ESE,117,3.0,4.0,34,-99.99,,,-99.99,,2013-03-12 03:02:00,
2013-03-11 20:12:00,46.0,19.0,-100.00,SE,127,2.0,3.0,33,-99.99,,,-99.99,,2013-03-12 03:12:00,
2013-03-11 20:22:00,45.0,23.0,-100.00,SE,127,3.0,4.0,41,-99.99,,,-99.99,,2013-03-12 03:22:00,
2013-03-11 20:32:00,45.0,23.0,-100.00,SE,127,3.0,4.0,41,-99.99,,,-99.99,,2013-03-12 03:32:00,
2013-03-11 20:42:00,45.0,23.0,-100.00,SE,127,3.0,4.0,41,-99.99,,,-99.99,,2013-03-12 03:42:00,
2013-03-11 20:52:00,45.0,23.0,-100.00,SE,127,3.0,4.0,41,-99.99,,,-99.99,,2013-03-12 03:52:00,
2013-03-11 21:02:00,45.0,25.0,-100.00,North,-999,0.0,0.0,46,-99.99,,,-99.99,,2013-03-12 04:02:00,
2013-03-11 21:12:00,44.0,24.0,-100.00,North,-999,0.0,0.0,45,-99.99,,,-99.99,,2013-03-12 04:12:00,
2013-03-11 21:22:00,42.0,24.0,-100.00,SE,141,1.0,2.0,48,-99.99,,,-99.99,,2013-03-12 04:22:00,
2013-03-11 21:32:00,42.0,23.0,-100.00,SE,143,0.0,2.0,47,-99.99,,,-99.99,,2013-03-12 04:32:00,
2013-03-11 21:42:00,42.0,23.0,-100.00,North,-999,0.0,0.0,46,-99.99,,,-99.99,,2013-03-12 04:42:00,
2013-03-11 21:52:00,41.0,25.0,-100.00,North,-999,0.0,0.0,53,-99.99,,,-99.99,,2013-03-12 04:52:00,
2013-03-11 22:02:00,41.0,23.0,-100.00,SE,136,3.0,3.0,48,-99.99,,,-99.99,,2013-03-12 05:02:00,
2013-03-11 22:12:00,41.0,21.0,-100.00,SSE,157,1.0,2.0,45,-99.99,,,-99.99,,2013-03-12 05:12:00,
2013-03-11 22:21:00,41.0,20.0,-100.00,South,179,0.0,1.0,43,-99.99,,,-99.99,,2013-03-12 05:21:00,
2013-03-11 22:32:00,41.0,22.0,-100.00,North,-999,0.0,0.0,47,-99.99,,,-99.99,,2013-03-12 05:32:00,
2013-03-11 22:42:00,41.0,24.0,-100.00,SE,126,2.0,3.0,50,-99.99,,,-99.99,,2013-03-12 05:42:00,
2013-03-11 22:52:00,41.0,24.0,-100.00,SE,126,3.0,3.0,51,-99.99,,,-99.99,,2013-03-12 05:52:00,
2013-03-11 23:02:00,41.0,22.0,-100.00,ESE,114,3.0,4.0,47,-99.99,,,-99.99,,2013-03-12 06:02:00,
2013-03-11 23:11:00,41.0,22.0,-100.00,ESE,120,3.0,4.0,46,-99.99,,,-99.99,,2013-03-12 06:11:00,
2013-03-11 23:22:00,40.0,21.0,-100.00,ESE,121,4.0,4.0,47,-99.99,,,-99.99,,2013-03-12 06:22:00,
2013-03-11 23:32:00,41.0,21.0,-100.00,North,-999,0.0,0.0,45,-99.99,,,-99.99,,2013-03-12 06:32:00,
2013-03-11 23:42:00,41.0,21.0,-100.00,North,-999,0.0,0.0,45,-99.99,,,-99.99,,2013-03-12 06:42:00,
2013-03-11 23:52:00,41.0,21.0,-100.00,North,-999,0.0,0.0,45,-99.99,,,-99.99,,2013-03-12 06:52:00,